Time;durP1;ratioP1;P1;durP2;ratioP2;P2;SDS_P1;SDS_P2;PMS_P1;PMS_P2;Temp;Humidity;BMP_temperature;BMP_pressure;BME280_temperature;BME280_humidity;BME280_pressure;Samples;Min_cycle;Max_cycle;Signal;HPM_P1;HPM_P2
2022/10/05 00:02:20;;;;;;;7.57;1.40;;;;;;;14.08;53.14;99624.16;4484085;32;20463;-91
2022/10/05 00:04:47;;;;;;;7.40;1.85;;;;;;;14.06;53.28;99631.34;4487806;32;20115;-92
2022/10/05 00:07:13;;;;;;;5.80;1.42;;;;;;;14.03;53.46;99626.25;4487735;32;20462;-92
2022/10/05 00:09:39;;;;;;;6.90;1.60;;;;;;;14.03;53.55;99626.25;4487669;32;20076;-92
2022/10/05 00:12:16;;;;;;;6.18;1.70;;;;;;;14.00;53.49;99623.75;4487769;32;20110;-92
2022/10/05 00:14:42;;;;;;;6.32;1.98;;;;;;;14.00;53.40;99627.25;4486929;32;20168;-92
2022/10/05 00:17:13;;;;;;;8.45;1.58;;;;;;;13.96;53.41;99631.88;4487552;32;20080;-92
2022/10/05 00:19:39;;;;;;;5.90;1.65;;;;;;;13.97;53.38;99630.06;4473547;32;20085;-92
2022/10/05 00:22:07;;;;;;;7.35;1.70;;;;;;;13.94;53.32;99632.88;4487492;32;20088;-92
2022/10/05 00:24:32;;;;;;;6.97;1.87;;;;;;;13.94;53.28;99631.06;4487421;32;20093;-92
2022/10/05 00:27:00;;;;;;;7.57;1.50;;;;;;;13.95;53.19;99630.16;4487753;32;20115;-91
2022/10/05 00:29:25;;;;;;;6.35;1.40;;;;;;;13.93;53.13;99626.75;4460283;32;20561;-92
2022/10/05 00:31:51;;;;;;;4.82;1.70;;;;;;;13.90;53.09;99618.94;4487602;32;20101;-92
2022/10/05 00:34:17;;;;;;;4.90;1.50;;;;;;;13.90;53.04;99623.41;4473388;32;20159;-92
2022/10/05 00:36:42;;;;;;;6.85;1.55;;;;;;;13.69;53.14;99617.47;4487655;32;20100;-92
2022/10/05 00:39:08;;;;;;;5.97;1.52;;;;;;;13.72;53.07;99623.47;4487586;32;20092;-92
2022/10/05 00:41:58;;;;;;;7.55;1.58;;;;;;;13.81;52.74;99614.19;4484691;32;20384;-91
2022/10/05 00:44:55;;;;;;;7.10;1.50;;;;;;;13.85;52.72;99602.47;4469249;32;20542;-92
2022/10/05 00:47:25;;;;;;;7.87;2.60;;;;;;;13.85;52.94;99606.91;4478945;32;20925;-91
2022/10/05 00:50:06;;;;;;;5.35;1.23;;;;;;;13.80;53.27;99615.09;4471086;32;20115;-91
2022/10/05 00:52:37;;;;;;;6.78;1.70;;;;;;;13.80;53.48;99609.81;4478920;32;20448;-92
2022/10/05 00:55:23;;;;;;;6.45;1.70;;;;;;;13.83;53.63;99609.66;4477692;32;20127;-92
2022/10/05 00:57:55;;;;;;;5.75;1.42;;;;;;;13.83;53.79;99609.66;4478949;32;20601;-91
2022/10/05 01:00:23;;;;;;;7.20;1.62;;;;;;;13.81;53.91;99613.31;4478626;32;20392;-91
2022/10/05 01:02:48;;;;;;;4.15;1.48;;;;;;;13.77;54.03;99617.91;4468001;32;20163;-91
2022/10/05 01:05:32;;;;;;;6.68;1.65;;;;;;;13.77;54.04;99616.12;4478119;32;20454;-92
2022/10/05 01:08:27;;;;;;;6.45;1.70;;;;;;;13.78;54.11;99616.97;4478979;32;20146;-90
2022/10/05 01:11:15;;;;;;;5.90;1.52;;;;;;;13.49;54.57;99622.06;4479125;32;20518;-90
2022/10/05 01:13:52;;;;;;;6.70;1.80;;;;;;;13.59;53.98;99638.28;4469220;32;20139;-90
2022/10/05 01:16:30;;;;;;;6.55;1.58;;;;;;;13.67;53.84;99637.88;4478976;32;20143;-91
2022/10/05 01:19:23;;;;;;;7.60;1.62;;;;;;;13.74;53.65;99626.87;4468733;32;20447;-92
2022/10/05 01:21:56;;;;;;;5.30;1.48;;;;;;;13.77;53.66;99631.16;4469090;32;20145;-91
2022/10/05 01:24:36;;;;;;;8.63;2.40;;;;;;;13.80;53.71;99635.44;4470989;32;20109;-91
2022/10/05 01:27:17;;;;;;;7.28;1.70;;;;;;;13.81;53.77;99634.47;4468665;32;20507;-89
2022/10/05 01:29:52;;;;;;;6.87;1.50;;;;;;;13.76;53.94;99643.53;4478799;32;20127;-91
2022/10/05 01:32:38;;;;;;;10.90;2.33;;;;;;;13.77;53.97;99641.75;4457083;32;20155;-90
2022/10/05 01:35:10;;;;;;;6.68;1.90;;;;;;;13.77;53.90;99644.38;4470750;32;20061;-92
2022/10/05 01:37:48;;;;;;;7.05;1.55;;;;;;;13.76;53.98;99640.03;4478834;32;20096;-92
2022/10/05 01:40:37;;;;;;;6.43;1.60;;;;;;;13.76;54.12;99648.84;4478753;32;20463;-90
2022/10/05 01:43:03;;;;;;;;;;;;;;;13.77;54.09;99644.38;4479934;32;20131;-88
2022/10/05 01:46:02;;;;;;;6.37;1.50;;;;;;;13.76;53.89;99640.88;4474408;32;20158;-86
2022/10/05 01:48:50;;;;;;;6.35;1.77;;;;;;;13.71;53.82;99639.44;4471350;32;20421;-85
2022/10/05 01:51:40;;;;;;;6.05;1.45;;;;;;;13.69;53.67;99633.38;4457470;32;20488;-85
2022/10/05 01:54:30;;;;;;;6.22;1.67;;;;;;;13.65;53.66;99640.59;4473489;32;20148;-84
2022/10/05 01:57:40;;;;;;;7.40;1.60;;;;;;;13.63;53.56;99639.00;4486673;32;20258;-84
2022/10/05 02:00:11;;;;;;;4.80;1.50;;;;;;;13.61;53.45;99641.72;4407133;32;20105;-84
2022/10/05 02:02:40;;;;;;;8.13;1.70;;;;;;;13.60;53.37;99649.72;4394598;32;20386;-85
2022/10/05 02:05:10;;;;;;;6.68;1.87;;;;;;;13.57;53.31;99651.59;4407420;32;20713;-84
2022/10/05 02:07:40;;;;;;;5.57;1.50;;;;;;;13.59;53.12;99653.34;4394629;32;20114;-85
2022/10/05 02:10:32;;;;;;;6.75;1.58;;;;;;;13.59;53.02;99658.63;4394738;32;20536;-82
2022/10/05 02:13:01;;;;;;;7.68;1.80;;;;;;;13.59;53.01;99659.47;4399228;32;20074;-81
2022/10/05 02:15:33;;;;;;;6.78;1.60;;;;;;;13.58;53.13;99655.12;4394620;32;20150;-82
2022/10/05 02:18:04;;;;;;;7.37;2.08;;;;;;;13.57;53.33;99646.31;4394719;32;20090;-81
2022/10/05 02:20:31;;;;;;;5.05;1.73;;;;;;;13.59;53.46;99653.34;4394611;32;20093;-82
2022/10/05 02:23:02;;;;;;;4.68;1.48;;;;;;;13.60;53.49;99652.38;4391411;32;20165;-81
2022/10/05 02:25:35;;;;;;;5.20;1.48;;;;;;;13.58;53.57;99655.12;4366829;32;20177;-83
2022/10/05 02:28:03;;;;;;;6.90;1.65;;;;;;;13.63;53.41;99661.03;4379561;32;20125;-82
2022/10/05 02:30:30;;;;;;;4.22;1.40;;;;;;;13.24;53.07;99659.50;4405021;32;20099;-83
2022/10/05 02:33:00;;;;;;;6.53;1.57;;;;;;;13.46;52.56;99664.59;4401643;32;20105;-82
2022/10/05 02:35:25;;;;;;;5.07;1.40;;;;;;;13.53;52.57;99662.44;4469013;32;20113;-80
2022/10/05 02:37:56;;;;;;;8.85;1.77;;;;;;;13.51;52.84;99662.53;4484444;32;20097;-82
2022/10/05 02:40:37;;;;;;;6.78;1.62;;;;;;;13.51;52.94;99664.31;4473892;32;20164;-81
2022/10/05 02:43:11;;;;;;;8.57;1.87;;;;;;;13.51;52.84;99662.53;4485464;31;20158;-81
2022/10/05 02:45:56;;;;;;;6.57;1.85;;;;;;;13.39;53.07;99665.81;4485783;32;20145;-82
2022/10/05 02:48:39;;;;;;;5.53;1.60;;;;;;;13.47;52.98;99665.44;4474947;32;20124;-81
2022/10/05 02:51:16;;;;;;;6.75;1.95;;;;;;;13.47;53.09;99666.28;4485715;31;20119;-81
2022/10/05 02:54:13;;;;;;;6.30;1.67;;;;;;;13.47;53.14;99670.72;4482648;32;20119;-81
2022/10/05 02:57:10;;;;;;;7.37;1.70;;;;;;;13.44;53.21;99666.44;4471568;32;20100;-81
2022/10/05 03:00:06;;;;;;;6.20;1.67;;;;;;;13.44;53.22;99661.12;4478469;32;20116;-83
2022/10/05 03:02:42;;;;;;;8.57;1.75;;;;;;;13.42;53.41;99663.00;4484274;31;20111;-82
2022/10/05 03:05:24;;;;;;;5.75;1.62;;;;;;;13.36;53.65;99666.81;4478727;32;20111;-82
2022/10/05 03:08:14;;;;;;;8.35;1.83;;;;;;;13.39;53.64;99659.69;4470626;32;20099;-82
2022/10/05 03:10:52;;;;;;;7.97;2.00;;;;;;;13.39;53.56;99667.63;4477595;32;20486;-81
2022/10/05 03:13:23;;;;;;;3.75;1.40;;;;;;;13.35;53.72;99653.69;4479058;31;20088;-81
2022/10/05 03:16:15;;;;;;;6.12;1.80;;;;;;;13.36;53.99;99650.94;4485517;32;20157;-82
2022/10/05 03:19:02;;;;;;;5.72;1.70;;;;;;;13.35;54.07;99656.34;4413732;32;20094;-83
2022/10/05 03:21:43;;;;;;;8.25;1.83;;;;;;;13.33;54.04;99642.34;4417624;32;20730;-82
2022/10/05 03:24:09;;;;;;;6.45;1.62;;;;;;;13.32;53.93;99637.97;4395667;32;20090;-82
2022/10/05 03:26:52;;;;;;;8.18;1.62;;;;;;;13.27;53.89;99638.19;4415121;32;20109;-82
2022/10/05 03:29:39;;;;;;;7.12;1.65;;;;;;;13.15;53.88;99644.97;4415895;32;20073;-82
2022/10/05 03:32:29;;;;;;;5.97;1.80;;;;;;;13.14;53.81;99648.53;4390227;32;20122;-83
2022/10/05 03:35:03;;;;;;;7.65;1.70;;;;;;;13.11;53.99;99648.69;4406653;32;20177;-81
2022/10/05 03:37:36;;;;;;;7.45;1.77;;;;;;;13.15;54.00;99641.44;4409275;32;20155;-82
2022/10/05 03:40:45;;;;;;;10.32;2.45;;;;;;;13.12;54.47;99647.75;4417705;32;20120;-82
2022/10/05 03:43:29;;;;;;;8.00;1.52;;;;;;;13.14;54.82;99659.13;4408619;32;20102;-81
2022/10/05 03:46:00;;;;;;;7.18;1.75;;;;;;;13.15;54.81;99659.97;4408110;32;20102;-79
2022/10/05 03:48:38;;;;;;;5.40;1.60;;;;;;;13.10;54.99;99665.50;4415379;32;20098;-80
2022/10/05 03:51:13;;;;;;;8.05;1.90;;;;;;;13.09;55.16;99668.22;4404130;32;20631;-80
2022/10/05 03:53:46;;;;;;;7.60;1.65;;;;;;;13.04;55.38;99675.53;4397443;32;20224;-80
2022/10/05 03:56:16;;;;;;;7.35;1.70;;;;;;;13.02;55.47;99672.97;4465560;32;20859;-81
2022/10/05 03:58:49;;;;;;;6.45;1.80;;;;;;;12.97;55.66;99675.84;4470546;32;20144;-81
2022/10/05 04:01:18;;;;;;;6.90;1.85;;;;;;;12.70;56.38;99674.56;4480743;32;20085;-80
2022/10/05 04:03:53;;;;;;;7.65;2.33;;;;;;;12.61;56.59;99673.22;4472817;32;20486;-80
2022/10/05 04:06:27;;;;;;;6.40;1.90;;;;;;;12.73;56.20;99679.72;4473376;32;20085;-82
2022/10/05 04:08:59;;;;;;;8.20;2.10;;;;;;;12.59;56.86;99675.09;4478579;32;20093;-81
2022/10/05 04:11:43;;;;;;;10.30;2.12;;;;;;;12.68;56.60;99666.72;4486964;31;20096;-81
2022/10/05 04:14:25;;;;;;;7.60;2.22;;;;;;;12.70;56.70;99677.22;4473480;32;20418;-81
2022/10/05 04:16:57;;;;;;;7.62;2.53;;;;;;;12.72;56.78;99672.72;4478090;32;20122;-81
2022/10/05 04:19:43;;;;;;;8.73;2.75;;;;;;;12.74;56.91;99676.97;4487213;31;20419;-81
2022/10/05 04:22:16;;;;;;;8.20;2.35;;;;;;;12.51;58.01;99683.38;4462826;32;20102;-82
2022/10/05 04:25:02;;;;;;;8.18;2.70;;;;;;;12.66;57.57;99678.31;4464211;32;20149;-81
2022/10/05 04:27:38;;;;;;;11.18;2.80;;;;;;;12.71;57.58;99673.63;4473695;31;20123;-81
2022/10/05 04:30:33;;;;;;;9.13;2.87;;;;;;;12.70;57.63;99674.56;4460294;32;20143;-82
2022/10/05 04:32:59;;;;;;;9.27;2.70;;;;;;;12.46;58.78;99676.59;4461887;32;20120;-82
2022/10/05 04:35:33;;;;;;;8.18;2.22;;;;;;;12.56;58.31;99669.97;4473964;32;20092;-81
2022/10/05 04:38:02;;;;;;;8.00;2.80;;;;;;;12.64;58.17;99674.88;4486448;32;20572;-81
2022/10/05 04:41:04;;;;;;;8.40;2.72;;;;;;;12.67;58.10;99677.34;4487117;32;20093;-82
2022/10/05 04:43:32;;;;;;;8.13;2.30;;;;;;;12.71;58.04;99682.44;4487161;31;20129;-82
2022/10/05 04:46:19;;;;;;;9.98;2.55;;;;;;;12.63;58.17;99676.66;4485004;32;20506;-81
2022/10/05 04:48:52;;;;;;;8.07;2.33;;;;;;;12.70;58.15;99674.56;4486926;32;20092;-82
2022/10/05 04:51:34;;;;;;;8.00;2.53;;;;;;;12.71;58.17;99690.38;4486863;31;20462;-80
2022/10/05 04:54:07;;;;;;;9.57;2.45;;;;;;;12.69;58.34;99686.94;4472155;32;20112;-82
2022/10/05 04:56:38;;;;;;;9.45;2.40;;;;;;;12.71;58.50;99673.63;4486757;31;20395;-81
2022/10/05 04:59:38;;;;;;;9.90;2.58;;;;;;;12.72;58.55;99673.56;4475840;32;20153;-81
2022/10/05 05:02:11;;;;;;;8.75;2.20;;;;;;;12.76;58.64;99669.81;4469925;32;20092;-82
2022/10/05 05:04:39;;;;;;;11.73;3.03;;;;;;;12.77;58.70;99679.47;4477850;32;20099;-81
2022/10/05 05:07:33;;;;;;;9.05;2.72;;;;;;;12.84;58.64;99680.03;4486457;31;20104;-81
2022/10/05 05:10:06;;;;;;;11.05;2.45;;;;;;;12.92;58.66;99674.34;4471992;32;20108;-80
2022/10/05 05:13:00;;;;;;;9.50;2.53;;;;;;;12.96;58.74;99670.63;4475677;31;20080;-81
2022/10/05 05:15:33;;;;;;;7.68;2.40;;;;;;;13.08;58.73;99663.88;4484637;31;20088;-81
2022/10/05 05:18:01;;;;;;;7.97;2.30;;;;;;;13.17;58.65;99664.25;4467137;32;20116;-80
2022/10/05 05:20:40;;;;;;;9.77;2.45;;;;;;;13.28;58.59;99668.97;4486903;31;20145;-80
2022/10/05 05:23:21;;;;;;;10.75;3.25;;;;;;;13.34;58.60;99667.84;4478482;31;20156;-81
2022/10/05 05:26:34;;;;;;;9.02;3.00;;;;;;;13.32;58.17;99670.56;4472605;32;20463;-80
2022/10/05 05:29:19;;;;;;;9.88;2.97;;;;;;;13.38;57.68;99674.69;4459142;32;20105;-80
2022/10/05 05:31:50;;;;;;;12.75;3.20;;;;;;;13.48;57.55;99678.59;4483682;32;20402;-81
2022/10/05 05:34:22;;;;;;;10.38;3.45;;;;;;;13.30;58.15;99677.72;4473207;32;20148;-81
2022/10/05 05:37:22;;;;;;;8.43;2.65;;;;;;;13.51;57.64;99682.84;4486720;32;20523;-80
2022/10/05 05:40:12;;;;;;;9.13;2.78;;;;;;;13.32;57.53;99683.81;4418951;32;20124;-81
2022/10/05 05:43:01;;;;;;;9.43;2.90;;;;;;;13.54;57.45;99686.19;4383233;32;20103;-80
2022/10/05 05:45:32;;;;;;;9.90;3.15;;;;;;;13.79;56.87;99692.84;4392375;32;20106;-81
2022/10/05 05:47:59;;;;;;;9.55;2.95;;;;;;;13.88;56.79;99689.69;4394327;32;20158;-82
2022/10/05 05:50:48;;;;;;;9.50;3.00;;;;;;;13.85;56.87;99699.59;4407411;32;20102;-82
2022/10/05 05:53:29;;;;;;;12.18;2.92;;;;;;;13.63;57.67;99713.13;4407496;32;20124;-82
2022/10/05 05:55:59;;;;;;;10.93;2.95;;;;;;;14.05;56.43;99714.44;4407334;32;20485;-82
2022/10/05 05:58:29;;;;;;;11.38;3.08;;;;;;;14.26;56.04;99712.41;4407314;32;20134;-82
2022/10/05 06:01:08;;;;;;;10.32;2.60;;;;;;;14.18;55.70;99714.59;4394840;32;20713;-82
2022/10/05 06:03:42;;;;;;;7.85;2.83;;;;;;;14.32;55.65;99714.72;4393853;32;20167;-82
2022/10/05 06:06:13;;;;;;;8.50;2.40;;;;;;;14.48;55.47;99717.38;4394764;32;20086;-82
2022/10/05 06:08:41;;;;;;;8.60;2.70;;;;;;;14.59;54.86;99728.25;4394874;32;20082;-82
2022/10/05 06:11:18;;;;;;;10.73;2.65;;;;;;;14.68;54.60;99737.47;4394719;32;20125;-82
2022/10/05 06:13:45;;;;;;;10.65;2.58;;;;;;;14.46;55.16;99740.47;4406053;32;20130;-83
2022/10/05 06:16:40;;;;;;;7.20;2.35;;;;;;;14.67;55.03;99757.00;4420604;32;20112;-82
2022/10/05 06:19:11;;;;;;;7.65;2.40;;;;;;;14.63;54.66;99761.62;4473035;32;20068;-82
2022/10/05 06:21:57;;;;;;;8.57;2.60;;;;;;;14.61;54.38;99765.31;4472420;32;20097;-83
2022/10/05 06:24:35;;;;;;;11.38;3.00;;;;;;;14.75;54.18;99771.53;4472550;32;20100;-82
2022/10/05 06:27:26;;;;;;;9.03;2.90;;;;;;;14.88;54.10;99776.16;4486822;32;20758;-82
2022/10/05 06:29:54;;;;;;;10.10;2.70;;;;;;;15.02;54.24;99770.06;4472630;32;20152;-82
2022/10/05 06:32:31;;;;;;;11.12;2.72;;;;;;;15.14;54.53;99775.53;4486679;32;20148;-82
2022/10/05 06:35:08;;;;;;;8.77;2.55;;;;;;;15.22;54.51;99768.91;4486705;32;20112;-82
2022/10/05 06:38:21;;;;;;;11.40;3.15;;;;;;;15.29;53.86;99778.25;4472395;32;20439;-82
2022/10/05 06:41:05;;;;;;;9.57;2.65;;;;;;;14.99;53.30;99780.84;4422418;32;20194;-83
2022/10/05 06:43:39;;;;;;;8.52;2.50;;;;;;;14.92;53.66;99785.66;4422164;32;20173;-82
2022/10/05 06:46:35;;;;;;;10.50;2.87;;;;;;;15.17;53.13;99782.47;4409304;32;20159;-83
2022/10/05 06:49:16;;;;;;;8.05;2.33;;;;;;;15.29;52.84;99784.41;4422178;32;20550;-82
2022/10/05 06:51:58;;;;;;;11.18;2.85;;;;;;;15.39;52.70;99787.37;4409398;32;20089;-83
2022/10/05 06:54:42;;;;;;;7.28;2.55;;;;;;;15.18;53.05;99788.63;4409372;32;20137;-83
2022/10/05 06:57:29;;;;;;;9.25;2.62;;;;;;;15.04;53.37;99794.72;4422181;32;20105;-82
2022/10/05 07:00:00;;;;;;;10.80;3.08;;;;;;;14.82;54.35;99793.28;4422312;32;20164;-82
2022/10/05 07:02:48;;;;;;;13.43;3.15;;;;;;;15.43;53.35;99798.66;4421766;32;20607;-82
2022/10/05 07:05:45;;;;;;;9.27;2.83;;;;;;;15.68;52.93;99811.34;4409270;32;20145;-82
2022/10/05 07:08:45;;;;;;;10.63;3.40;;;;;;;15.67;52.63;99812.31;4421900;32;20239;-82
2022/10/05 07:11:23;;;;;;;12.48;3.30;;;;;;;15.45;52.84;99808.28;4421960;32;20428;-82
2022/10/05 07:14:10;;;;;;;11.83;3.13;;;;;;;15.39;53.57;99807.75;4421711;32;20389;-83
2022/10/05 07:16:40;;;;;;;13.15;3.87;;;;;;;15.83;52.62;99814.94;4457778;32;20110;-82
2022/10/05 07:19:41;;;;;;;12.95;3.28;;;;;;;15.93;52.30;99808.13;4486113;32;20114;-83
2022/10/05 07:22:09;;;;;;;11.93;4.05;;;;;;;16.03;51.79;99796.00;4406215;32;20102;-83
2022/10/05 07:24:45;;;;;;;13.93;3.47;;;;;;;16.14;51.73;99792.66;4406950;32;20078;-83
2022/10/05 07:27:12;;;;;;;11.95;3.92;;;;;;;16.16;51.97;99804.06;4396098;32;20161;-82
2022/10/05 07:30:05;;;;;;;11.65;4.00;;;;;;;15.63;52.85;99813.44;4395870;32;20122;-83
2022/10/05 07:32:55;;;;;;;10.90;3.67;;;;;;;16.01;52.51;99823.59;4408337;32;20130;-83
2022/10/05 07:38:20;;;;;;;13.43;4.72;;;;;;;16.20;52.03;99820.69;4407995;32;20548;-83
2022/10/05 07:40:53;;;;;;;13.30;4.68;;;;;;;16.35;51.51;99813.56;4408130;32;20125;-83
2022/10/05 07:43:40;;;;;;;12.15;4.90;;;;;;;16.43;51.84;99809.47;4395591;32;20103;-83
2022/10/05 07:46:16;;;;;;;14.93;5.70;;;;;;;16.33;52.53;99808.34;4408182;32;20539;-83
2022/10/05 07:49:02;;;;;;;15.70;6.07;;;;;;;16.36;52.54;99801.97;4395661;32;20106;-83
2022/10/05 07:51:40;;;;;;;13.88;6.07;;;;;;;16.35;52.80;99806.44;4408647;32;20125;-83
2022/10/05 07:54:18;;;;;;;15.95;5.80;;;;;;;16.50;51.83;99804.63;4395639;32;20624;-82
2022/10/05 07:56:47;;;;;;;15.27;5.90;;;;;;;16.57;51.69;99805.09;4408259;32;20430;-82
2022/10/05 07:59:35;;;;;;;15.93;6.22;;;;;;;16.51;53.02;99809.00;4446351;32;20142;-83
2022/10/05 08:02:19;;;;;;;15.20;6.10;;;;;;;16.61;52.22;99820.78;4473685;32;20092;-82
2022/10/05 08:05:15;;;;;;;19.23;6.05;;;;;;;16.70;51.66;99829.97;4460718;32;20099;-82
2022/10/05 08:07:41;;;;;;;13.95;6.05;;;;;;;16.76;51.41;99829.56;4488037;32;20080;-82
2022/10/05 08:10:28;;;;;;;17.35;6.07;;;;;;;16.72;51.67;99822.75;4487799;32;20506;-82
2022/10/05 08:13:12;;;;;;;16.70;5.80;;;;;;;16.53;51.96;99815.06;4473309;32;20119;-82
2022/10/05 08:15:42;;;;;;;14.10;6.40;;;;;;;16.65;51.82;99822.28;4473671;32;20106;-82
2022/10/05 08:18:13;;;;;;;14.52;5.72;;;;;;;16.60;51.85;99810.22;4460217;32;20160;-82
2022/10/05 08:20:46;;;;;;;15.63;6.18;;;;;;;16.80;51.76;99808.94;4473555;32;20123;-82
2022/10/05 08:23:37;;;;;;;16.42;6.80;;;;;;;16.70;52.67;99800.72;4473242;32;20455;-82
2022/10/05 08:26:30;;;;;;;14.77;6.30;;;;;;;16.94;52.13;99786.78;4487710;32;20160;-83
2022/10/05 08:29:05;;;;;;;19.10;7.43;;;;;;;16.98;51.82;99782.97;4487957;32;20107;-83
2022/10/05 08:31:32;;;;;;;14.70;6.12;;;;;;;17.26;51.32;99768.72;4473294;32;20471;-83
2022/10/05 08:34:04;;;;;;;12.27;5.70;;;;;;;17.43;51.14;99776.44;4473347;32;20123;-83
2022/10/05 08:36:38;;;;;;;15.98;5.22;;;;;;;17.58;50.85;99784.38;4472517;32;20115;-82
2022/10/05 08:39:14;;;;;;;14.98;5.10;;;;;;;17.49;50.41;99778.69;4487526;32;20072;-83
2022/10/05 08:42:04;;;;;;;11.57;4.35;;;;;;;16.96;51.52;99784.88;4473418;32;20097;-83
2022/10/05 08:44:29;;;;;;;13.30;4.35;;;;;;;17.12;51.34;99777.63;4473052;32;20123;-83
2022/10/05 08:47:07;;;;;;;15.00;4.20;;;;;;;17.35;50.64;99765.44;4487434;32;20080;-83
2022/10/05 08:50:10;;;;;;;10.97;4.13;;;;;;;17.28;50.94;99762.31;4460128;32;20187;-83
2022/10/05 08:52:54;;;;;;;11.85;4.40;;;;;;;17.59;50.79;99772.72;4473217;32;20139;-83
2022/10/05 08:55:34;;;;;;;12.90;5.15;;;;;;;17.85;50.39;99779.00;4487545;32;20494;-83
2022/10/05 08:58:17;;;;;;;12.65;5.50;;;;;;;17.82;50.56;99784.47;4487414;32;20084;-83
2022/10/05 09:01:04;;;;;;;13.65;5.93;;;;;;;17.80;50.53;99778.41;4473171;32;20103;-82
2022/10/05 09:03:39;;;;;;;13.62;5.45;;;;;;;17.67;50.78;99779.25;4487383;32;20081;-83
2022/10/05 09:06:13;;;;;;;16.83;6.60;;;;;;;17.63;50.56;99796.38;4487476;32;20137;-83
2022/10/05 09:08:41;;;;;;;15.93;6.82;;;;;;;17.65;50.99;99805.16;4473479;32;20080;-83
2022/10/05 09:11:38;;;;;;;14.30;7.03;;;;;;;17.51;51.56;99801.72;4487388;32;20182;-83
2022/10/05 09:14:16;;;;;;;15.40;6.43;;;;;;;17.76;50.17;99804.41;4473300;32;20118;-83
2022/10/05 09:17:17;;;;;;;18.02;7.20;;;;;;;17.94;49.90;99796.16;4487445;32;20352;-83
2022/10/05 09:20:01;;;;;;;14.80;6.55;;;;;;;18.39;49.32;99809.91;4423224;32;20082;-83
2022/10/05 09:22:40;;;;;;;15.07;6.15;;;;;;;18.64;48.08;99809.00;4422978;32;20466;-83
2022/10/05 09:25:21;;;;;;;14.73;6.37;;;;;;;18.66;48.10;99813.28;4422770;32;20101;-84
2022/10/05 09:27:58;;;;;;;12.48;4.25;;;;;;;18.69;48.55;99809.53;4422971;32;20177;-83
2022/10/05 09:30:41;;;;;;;12.45;4.35;;;;;;;18.27;48.29;99804.47;4410233;32;20108;-83
2022/10/05 09:33:24;;;;;;;11.73;4.32;;;;;;;18.88;46.71;99800.22;4422888;32;20104;-83
2022/10/05 09:36:17;;;;;;;11.48;4.20;;;;;;;19.21;46.23;99804.88;4410569;32;20101;-83
2022/10/05 09:39:01;;;;;;;12.45;4.43;;;;;;;19.61;44.91;99801.91;4422914;32;20105;-83
2022/10/05 09:41:54;;;;;;;10.55;4.70;;;;;;;19.61;44.54;99799.22;4422891;32;20101;-83
2022/10/05 09:44:44;;;;;;;11.18;3.95;;;;;;;19.30;45.44;99812.22;4409962;32;20090;-83
2022/10/05 09:47:28;;;;;;;10.02;4.20;;;;;;;19.72;44.55;99801.09;4422581;32;20213;-83
2022/10/05 09:49:59;;;;;;;9.43;3.25;;;;;;;19.65;43.62;99796.19;4422761;32;20171;-83
2022/10/05 09:52:24;;;;;;;10.77;3.70;;;;;;;19.73;43.28;99801.00;4422727;32;20449;-83
2022/10/05 09:55:17;;;;;;;10.75;3.55;;;;;;;19.67;43.20;99790.75;4422784;32;20185;-83
2022/10/05 09:58:01;;;;;;;10.70;3.90;;;;;;;19.30;44.67;99801.53;4485559;32;20088;-83
2022/10/05 10:00:50;;;;;;;11.60;3.75;;;;;;;19.15;45.02;99802.69;4486969;32;20126;-83
2022/10/05 10:03:43;;;;;;;10.35;4.45;;;;;;;19.22;44.88;99802.13;4487016;32;20337;-83
2022/10/05 10:06:28;;;;;;;11.55;4.37;;;;;;;19.17;45.32;99798.06;4486943;32;20425;-83
2022/10/05 10:09:08;;;;;;;13.75;4.90;;;;;;;19.18;45.46;99795.28;4487048;32;20497;-83
2022/10/05 10:11:55;;;;;;;11.77;4.28;;;;;;;18.97;46.25;99805.75;4472757;32;20123;-82
2022/10/05 10:14:58;;;;;;;14.73;4.90;;;;;;;19.20;45.82;99795.16;4487017;32;20080;-83
2022/10/05 10:17:51;;;;;;;10.57;4.75;;;;;;;19.34;45.58;99797.66;4487101;32;20098;-83
2022/10/05 10:20:34;;;;;;;13.48;5.65;;;;;;;19.54;45.41;99801.50;4486863;32;20084;-83
2022/10/05 10:23:21;;;;;;;15.27;5.28;;;;;;;19.21;45.67;99808.41;4486751;32;20080;-83
2022/10/05 10:25:57;;;;;;;11.73;4.93;;;;;;;19.46;45.38;99798.56;4472514;32;20097;-83
2022/10/05 10:28:37;;;;;;;13.95;5.70;;;;;;;19.64;45.21;99799.84;4472573;32;20084;-83
2022/10/05 10:31:21;;;;;;;16.87;5.32;;;;;;;19.46;45.46;99798.56;4486877;32;20097;-83
2022/10/05 10:34:04;;;;;;;14.35;4.95;;;;;;;19.83;44.93;99793.97;4486623;32;20092;-83
2022/10/05 10:36:38;;;;;;;15.18;5.90;;;;;;;19.62;45.23;99793.78;4486642;32;20084;-83
2022/10/05 10:39:16;;;;;;;14.05;5.25;;;;;;;19.13;47.01;99802.78;4486650;32;20091;-83
2022/10/05 10:42:03;;;;;;;10.52;4.32;;;;;;;19.32;45.96;99799.59;4472525;32;20100;-83
2022/10/05 10:44:57;;;;;;;11.30;4.35;;;;;;;19.83;44.49;99804.66;4472393;32;20097;-83
2022/10/05 10:47:42;;;;;;;12.85;5.50;;;;;;;19.99;43.45;99801.66;4486463;32;20504;-83
2022/10/05 10:50:33;;;;;;;11.52;4.20;;;;;;;20.02;43.47;99801.41;4472331;32;20122;-83
2022/10/05 10:53:20;;;;;;;11.60;5.12;;;;;;;19.93;44.01;99795.94;4472103;32;20743;-83
2022/10/05 10:56:07;;;;;;;11.43;4.60;;;;;;;20.21;43.75;99797.31;4472543;32;20169;-83
2022/10/05 10:58:33;;;;;;;11.52;4.37;;;;;;;20.21;43.68;99800.00;4486373;32;20122;-83
2022/10/05 11:01:29;;;;;;;14.13;5.20;;;;;;;20.12;44.12;99798.88;4488230;32;20422;-83
2022/10/05 11:04:13;;;;;;;12.48;4.87;;;;;;;20.05;44.49;99808.38;4474047;32;20205;-83
2022/10/05 11:06:50;;;;;;;12.63;5.00;;;;;;;19.91;45.28;99812.09;4488315;32;20459;-83
2022/10/05 11:09:53;;;;;;;10.65;4.25;;;;;;;19.93;45.28;99809.31;4488268;32;20072;-83
2022/10/05 11:13:02;;;;;;;15.00;5.32;;;;;;;19.83;46.12;99809.16;4488286;32;20099;-83
2022/10/05 11:15:28;;;;;;;11.73;5.15;;;;;;;19.70;46.52;99806.56;4460872;32;20126;-83
2022/10/05 11:18:09;;;;;;;14.73;6.00;;;;;;;19.82;45.88;99802.13;4488164;32;20084;-84
2022/10/05 11:20:57;;;;;;;13.93;5.12;;;;;;;19.79;46.17;99805.03;4460962;32;20072;-83
2022/10/05 11:23:28;;;;;;;12.43;5.62;;;;;;;20.04;45.39;99799.47;4488042;32;20399;-83
2022/10/05 11:26:32;;;;;;;13.62;5.85;;;;;;;19.92;45.85;99802.25;4473627;32;20160;-83
2022/10/05 11:29:21;;;;;;;13.93;5.78;;;;;;;20.17;45.40;99798.53;4423902;32;20174;-83
2022/10/05 11:32:05;;;;;;;14.30;5.65;;;;;;;20.16;46.01;99794.13;4423775;32;20108;-83
2022/10/05 11:34:48;;;;;;;14.00;6.70;;;;;;;20.45;45.16;99782.97;4423934;32;20208;-84
2022/10/05 11:37:32;;;;;;;16.42;7.35;;;;;;;20.15;45.84;99771.87;4423750;32;20125;-84
2022/10/05 11:40:24;;;;;;;14.48;7.15;;;;;;;20.19;46.21;99773.34;4423700;32;20158;-83
2022/10/05 11:42:56;;;;;;;16.15;6.43;;;;;;;20.14;46.19;99772.84;4377874;32;20087;-83
2022/10/05 11:45:24;;;;;;;13.95;6.55;;;;;;;19.70;48.07;99779.81;4365708;32;20095;-83
2022/10/05 11:47:55;;;;;;;14.45;6.65;;;;;;;19.82;47.23;99775.38;4353119;32;20368;-83
2022/10/05 11:51:02;;;;;;;13.35;6.75;;;;;;;20.26;46.71;99765.66;4378238;32;20132;-83
2022/10/05 11:53:56;;;;;;;13.15;5.70;;;;;;;20.57;46.04;99769.44;4378114;32;20090;-83
2022/10/05 11:56:44;;;;;;;13.32;6.00;;;;;;;20.80;45.56;99756.91;4365830;32;20122;-83
2022/10/05 11:59:34;;;;;;;14.43;6.87;;;;;;;20.97;45.18;99755.50;4369878;32;20596;-83
2022/10/05 12:02:18;;;;;;;16.12;6.37;;;;;;;21.27;44.73;99745.06;4365463;32;20111;-83
2022/10/05 12:04:44;;;;;;;15.00;6.05;;;;;;;21.38;44.71;99743.19;4382072;32;20161;-83
2022/10/05 12:07:31;;;;;;;13.40;5.97;;;;;;;21.24;44.53;99740.78;4408079;32;20705;-83
2022/10/05 12:10:19;;;;;;;14.93;5.57;;;;;;;21.05;44.71;99744.16;4408257;32;20109;-83
2022/10/05 12:13:19;;;;;;;13.27;5.45;;;;;;;21.12;45.37;99747.19;4408147;32;20525;-84
2022/10/05 12:16:17;;;;;;;12.77;6.20;;;;;;;21.09;44.79;99744.75;4405060;32;20091;-83
2022/10/05 12:18:58;;;;;;;11.98;5.40;;;;;;;21.40;43.87;99735.84;4407331;32;20124;-83
2022/10/05 12:21:29;;;;;;;11.65;5.50;;;;;;;21.58;44.13;99748.72;4487707;32;20152;-83
2022/10/05 12:24:24;;;;;;;12.37;4.45;;;;;;;21.66;43.48;99742.69;4484561;32;93231;-83
2022/10/05 12:26:56;;;;;;;11.70;4.22;;;;;;;21.80;42.63;99739.66;4487076;32;20193;-84
2022/10/05 12:29:31;;;;;;;11.77;4.22;;;;;;;21.90;42.30;99739.72;4473479;32;20137;-83
2022/10/05 12:31:59;;;;;;;11.48;4.32;;;;;;;21.75;42.62;99736.50;4487659;32;20084;-83
2022/10/05 12:34:27;;;;;;;11.77;4.30;;;;;;;21.73;42.58;99738.47;4487572;32;20115;-83